createdAt,value
2023-03-04T00:00:20.462Z,1.70
2023-03-04T00:01:22.523Z,1.60
2023-03-04T00:02:24.676Z,1.60
2023-03-04T00:03:26.747Z,1.60
2023-03-04T00:04:28.936Z,1.60
2023-03-04T00:05:31.291Z,1.50
2023-03-04T00:06:37.534Z,1.50
2023-03-04T00:07:42.107Z,1.50
2023-03-04T00:08:44.211Z,1.60
2023-03-04T00:09:46.688Z,1.50
2023-03-04T00:10:48.672Z,1.50
2023-03-04T00:11:50.627Z,1.50
2023-03-04T00:12:52.597Z,1.60
2023-03-04T00:13:55.857Z,1.60
2023-03-04T00:14:57.885Z,1.60
2023-03-04T00:15:59.960Z,1.60
2023-03-04T00:17:04.515Z,1.60
2023-03-04T00:18:06.501Z,1.60
2023-03-04T00:19:08.490Z,1.60
2023-03-04T00:20:11.012Z,1.60
2023-03-04T00:21:12.942Z,1.60
2023-03-04T00:22:14.875Z,1.60
2023-03-04T00:23:17.239Z,1.60
2023-03-04T00:24:19.261Z,1.60
2023-03-04T00:25:21.215Z,1.60
2023-03-04T00:26:23.292Z,1.60
2023-03-04T00:27:25.180Z,1.60
2023-03-04T00:28:28.057Z,1.60
2023-03-04T00:29:30.069Z,1.60
2023-03-04T00:30:32.021Z,1.60
2023-03-04T00:31:34.084Z,1.60
2023-03-04T00:32:38.306Z,1.60
2023-03-04T00:33:40.570Z,1.60
2023-03-04T00:34:43.298Z,1.60
2023-03-04T00:35:45.379Z,1.60
2023-03-04T00:36:47.369Z,1.60
2023-03-04T00:37:49.326Z,1.50
2023-03-04T00:38:52.689Z,1.50
2023-03-04T00:39:54.757Z,1.50
2023-03-04T00:40:57.016Z,1.50
2023-03-04T00:41:58.989Z,1.50
2023-03-04T00:43:01.098Z,1.50
2023-03-04T00:44:03.126Z,1.50
2023-03-04T00:45:06.402Z,1.50
2023-03-04T00:46:08.575Z,1.50
2023-03-04T00:47:11.839Z,1.40
2023-03-04T00:48:14.525Z,1.40
2023-03-04T00:49:16.567Z,1.40
2023-03-04T00:50:18.752Z,1.40
2023-03-04T00:51:20.779Z,1.40
2023-03-04T00:52:23.922Z,1.40
2023-03-04T00:53:25.936Z,1.40
2023-03-04T00:54:27.874Z,1.30
2023-03-04T00:55:30.186Z,1.30
2023-03-04T00:56:32.663Z,1.30
2023-03-04T00:57:35.231Z,1.30
2023-03-04T00:58:37.749Z,1.30
2023-03-04T00:59:40.858Z,1.30
2023-03-04T01:00:42.852Z,1.30
2023-03-04T01:01:45.034Z,1.30
2023-03-04T01:02:47.294Z,1.30
2023-03-04T01:03:50.413Z,1.30
2023-03-04T01:04:52.604Z,1.30
2023-03-04T01:05:57.992Z,1.30
2023-03-04T01:07:00.049Z,1.30
2023-03-04T01:08:02.755Z,1.20
2023-03-04T01:09:07.451Z,1.30
2023-03-04T01:10:13.177Z,1.30
2023-03-04T01:11:18.015Z,1.30
2023-03-04T01:12:23.279Z,1.30
2023-03-04T01:13:27.982Z,1.30
2023-03-04T01:14:35.672Z,1.30
2023-03-04T01:15:38.472Z,1.40
2023-03-04T01:16:40.696Z,1.40
2023-03-04T01:17:47.203Z,1.40
2023-03-04T01:19:02.322Z,1.40
2023-03-04T01:20:15.255Z,1.40
2023-03-04T01:21:21.388Z,1.50
2023-03-04T01:22:48.620Z,1.50
2023-03-04T01:24:11.870Z,1.50
2023-03-04T01:25:24.260Z,1.50
2023-03-04T01:26:44.619Z,1.40
2023-03-04T01:27:49.721Z,1.50
2023-03-04T01:28:55.945Z,1.50
2023-03-04T01:29:58.552Z,1.50
2023-03-04T01:31:19.725Z,1.50
2023-03-04T01:32:40.774Z,1.50
2023-03-04T01:33:49.255Z,1.50
2023-03-04T01:34:52.459Z,1.50
2023-03-04T01:36:03.568Z,1.50
2023-03-04T01:37:20.699Z,1.50
2023-03-04T01:38:24.104Z,1.60
2023-03-04T01:39:28.795Z,1.60
2023-03-04T01:40:31.820Z,1.60
2023-03-04T01:41:35.698Z,1.60
2023-03-04T01:42:38.688Z,1.60
2023-03-04T01:43:41.706Z,1.60
2023-03-04T01:44:45.038Z,1.70
2023-03-04T01:45:49.579Z,1.60
2023-03-04T01:46:56.887Z,1.60
2023-03-04T01:47:59.023Z,1.70
2023-03-04T01:49:01.263Z,1.70
2023-03-04T01:50:07.503Z,1.70
2023-03-04T01:51:16.106Z,1.70
2023-03-04T01:52:28.185Z,1.80
2023-03-04T01:53:35.904Z,1.80
2023-03-04T01:54:41.197Z,1.80
2023-03-04T01:55:43.562Z,1.80
2023-03-04T01:57:03.845Z,1.80
2023-03-04T02:00:07.841Z,1.90
2023-03-04T02:04:37.431Z,1.90
2023-03-04T02:06:01.592Z,2.00
2023-03-04T02:07:25.737Z,2.00
2023-03-04T02:14:35.091Z,2.00
2023-03-04T02:36:16.099Z,2.10
2023-03-04T02:39:46.468Z,2.10
2023-03-04T02:40:53.162Z,2.10
2023-03-04T02:41:56.834Z,2.10
2023-03-04T02:43:02.052Z,2.20
2023-03-04T02:44:04.203Z,2.20
2023-03-04T02:45:07.183Z,2.20
2023-03-04T02:46:18.288Z,2.20
2023-03-04T02:47:45.636Z,2.20
2023-03-04T02:48:47.830Z,2.20
2023-03-04T02:49:53.524Z,2.20
2023-03-04T02:50:58.980Z,2.20
2023-03-04T02:52:15.892Z,2.30
2023-03-04T02:53:31.168Z,2.20
2023-03-04T02:54:34.915Z,2.30
2023-03-04T02:55:37.293Z,2.30
2023-03-04T02:56:44.444Z,2.30
2023-03-04T02:57:51.669Z,2.30
2023-03-04T02:58:54.480Z,2.30
2023-03-04T03:00:07.929Z,2.30
2023-03-04T03:01:15.087Z,2.20
2023-03-04T03:02:23.153Z,2.20
2023-03-04T03:03:25.501Z,2.20
2023-03-04T03:04:31.210Z,2.20
2023-03-04T03:05:43.893Z,2.20
2023-03-04T03:06:48.672Z,2.20
2023-03-04T03:07:52.640Z,2.20
2023-03-04T03:08:54.710Z,2.20
2023-03-04T03:10:01.789Z,2.30
2023-03-04T03:11:11.924Z,2.30
2023-03-04T03:12:13.946Z,2.20
2023-03-04T03:13:22.336Z,2.30
2023-03-04T03:15:08.889Z,2.30
2023-03-04T03:16:16.902Z,2.20
2023-03-04T03:17:49.985Z,2.20
2023-03-04T03:19:04.556Z,2.20
2023-03-04T03:20:24.618Z,2.20
2023-03-04T03:21:32.566Z,2.20
2023-03-04T03:22:41.870Z,2.20
2023-03-04T03:24:12.793Z,2.20
2023-03-04T03:25:20.921Z,2.20
2023-03-04T03:26:31.241Z,2.10
2023-03-04T03:27:37.611Z,2.20
2023-03-04T03:28:49.969Z,2.20
2023-03-04T03:29:58.069Z,2.10
2023-03-04T03:31:07.829Z,2.20
2023-03-04T03:32:17.000Z,2.10
2023-03-04T03:33:24.388Z,2.10
2023-03-04T03:34:51.532Z,2.10
2023-03-04T03:35:58.998Z,2.10
2023-03-04T03:37:06.061Z,2.10
2023-03-04T03:38:10.687Z,2.10
2023-03-04T03:39:21.936Z,2.10
2023-03-04T03:40:34.177Z,2.10
2023-03-04T03:41:41.469Z,2.10
2023-03-04T03:42:44.760Z,2.10
2023-03-04T03:45:09.136Z,2.10
2023-03-04T03:46:14.506Z,2.00
2023-03-04T03:47:22.716Z,2.00
2023-03-04T03:48:28.780Z,2.00
2023-03-04T03:49:35.406Z,2.00
2023-03-04T03:51:09.081Z,2.00
2023-03-04T03:52:23.186Z,2.00
2023-03-04T03:53:30.352Z,2.00
2023-03-04T03:54:34.502Z,1.90
2023-03-04T03:55:40.172Z,2.00
2023-03-04T03:56:42.255Z,1.90
2023-03-04T03:57:53.466Z,1.90
2023-03-04T03:59:02.768Z,2.00
2023-03-04T04:00:15.190Z,2.00
2023-03-04T04:01:45.451Z,1.90
2023-03-04T04:02:50.334Z,1.90
2023-03-04T04:04:01.445Z,1.90
2023-03-04T04:05:24.053Z,1.90
2023-03-04T04:06:37.971Z,1.90
2023-03-04T04:07:43.311Z,1.80
2023-03-04T04:09:56.077Z,1.80
2023-03-04T04:12:13.006Z,1.70
2023-03-04T04:15:12.243Z,1.50
2023-03-04T04:16:23.786Z,1.50
2023-03-04T04:17:50.637Z,1.50
2023-03-04T04:19:10.848Z,1.50
2023-03-04T04:20:16.263Z,1.40
2023-03-04T04:21:22.222Z,1.40
2023-03-04T04:22:33.335Z,1.40
2023-03-04T04:23:49.680Z,1.40
2023-03-04T04:25:47.982Z,1.40
2023-03-04T04:26:53.268Z,1.30
2023-03-04T04:27:58.903Z,1.20
2023-03-04T04:29:21.926Z,1.20
2023-03-04T04:30:36.706Z,1.20
2023-03-04T04:31:38.753Z,1.20
2023-03-04T04:32:42.682Z,1.10
2023-03-04T04:33:49.975Z,1.10
2023-03-04T04:34:59.364Z,1.10
2023-03-04T04:36:12.429Z,1.10
2023-03-04T04:37:42.570Z,1.10
2023-03-04T04:40:55.624Z,1.10
2023-03-04T04:42:01.690Z,1.00
2023-03-04T04:43:19.023Z,1.00
2023-03-04T04:44:29.853Z,1.10
2023-03-04T04:45:41.588Z,1.10
2023-03-04T04:47:05.616Z,1.10
2023-03-04T04:48:21.496Z,1.10
2023-03-04T04:49:26.795Z,1.10
2023-03-04T04:53:52.323Z,1.10
2023-03-04T04:55:02.402Z,1.10
2023-03-04T04:56:22.229Z,1.10
2023-03-04T04:57:34.635Z,1.20
2023-03-04T04:58:41.855Z,1.20
2023-03-04T04:59:53.692Z,1.20
2023-03-04T05:01:12.829Z,1.20
2023-03-04T05:02:17.755Z,1.20
2023-03-04T05:03:25.510Z,1.30
2023-03-04T05:04:45.910Z,1.30
2023-03-04T05:05:49.020Z,1.30
2023-03-04T05:06:51.083Z,1.30
2023-03-04T05:07:57.822Z,1.30
2023-03-04T05:09:01.110Z,1.30
2023-03-04T05:10:03.652Z,1.30
2023-03-04T05:11:13.300Z,1.40
2023-03-04T05:12:16.458Z,1.40
2023-03-04T05:13:23.330Z,1.40
2023-03-04T05:14:51.896Z,1.40
2023-03-04T05:16:23.668Z,1.40
2023-03-04T05:17:55.632Z,1.30
2023-03-04T05:19:11.632Z,1.20
2023-03-04T05:20:27.394Z,1.20
2023-03-04T05:21:36.277Z,1.20
2023-03-04T05:22:45.300Z,1.10
2023-03-04T05:23:47.898Z,1.10
2023-03-04T05:24:56.213Z,1.10
2023-03-04T05:26:16.609Z,1.10
2023-03-04T05:27:18.823Z,1.10
2023-03-04T05:28:26.581Z,1.00
2023-03-04T05:29:28.796Z,1.00
2023-03-04T05:30:30.975Z,0.90
2023-03-04T05:31:33.706Z,0.80
2023-03-04T05:32:35.797Z,0.70
2023-03-04T05:33:38.222Z,0.50
2023-03-04T05:34:40.223Z,0.40
2023-03-04T05:35:43.817Z,0.30
2023-03-04T05:36:45.875Z,0.30
2023-03-04T05:37:47.944Z,0.30
2023-03-04T05:38:50.084Z,0.30
2023-03-04T05:39:52.039Z,0.30
2023-03-04T05:41:03.056Z,0.30
2023-03-04T05:42:07.659Z,0.30
2023-03-04T05:43:10.330Z,0.30
2023-03-04T05:44:12.276Z,0.30
2023-03-04T05:45:14.235Z,0.40
2023-03-04T05:46:19.048Z,0.40
2023-03-04T05:47:21.196Z,0.40
2023-03-04T05:48:23.631Z,0.40
2023-03-04T05:49:25.640Z,0.40
2023-03-04T05:50:28.110Z,0.40
2023-03-04T05:51:30.235Z,0.40
2023-03-04T05:52:32.304Z,0.40
2023-03-04T05:53:37.007Z,0.40
2023-03-04T05:54:39.338Z,0.40
2023-03-04T05:55:41.363Z,0.40
2023-03-04T05:56:43.359Z,0.40
2023-03-04T05:57:45.416Z,0.40
2023-03-04T05:58:48.217Z,0.40
2023-03-04T05:59:50.182Z,0.50
2023-03-04T06:00:52.409Z,0.50
2023-03-04T06:01:54.240Z,0.50
2023-03-04T06:02:56.116Z,0.50
2023-03-04T06:04:00.535Z,0.50
2023-03-04T06:05:02.519Z,0.50
2023-03-04T06:06:04.548Z,0.50
2023-03-04T06:07:06.361Z,0.50
2023-03-04T06:08:08.237Z,0.60
2023-03-04T06:09:10.285Z,0.60
2023-03-04T06:10:13.598Z,0.60
2023-03-04T06:11:15.566Z,0.50
2023-03-04T06:12:17.458Z,0.50
2023-03-04T06:13:19.408Z,0.50
2023-03-04T06:14:21.331Z,0.50
2023-03-04T06:15:23.253Z,0.50
2023-03-04T06:16:25.190Z,0.50
2023-03-04T06:17:27.038Z,0.50
2023-03-04T06:18:29.550Z,0.50
2023-03-04T06:19:31.519Z,0.50
2023-03-04T06:20:33.513Z,0.50
2023-03-04T06:21:35.593Z,0.40
2023-03-04T06:22:37.488Z,0.40
2023-03-04T06:23:39.370Z,0.40
2023-03-04T06:24:41.243Z,0.40
2023-03-04T06:25:43.201Z,0.40
2023-03-04T06:26:45.622Z,0.40
2023-03-04T06:27:49.215Z,0.40
2023-03-04T06:28:55.433Z,0.40
2023-03-04T06:29:57.359Z,0.40
2023-03-04T06:30:59.428Z,0.40
2023-03-04T06:32:01.426Z,0.40
2023-03-04T06:33:03.343Z,0.50
2023-03-04T06:34:05.368Z,0.50
2023-03-04T06:35:07.670Z,0.50
2023-03-04T06:36:09.642Z,0.50
2023-03-04T06:37:11.633Z,0.60
2023-03-04T06:38:18.085Z,0.60
2023-03-04T06:39:23.434Z,0.60
2023-03-04T06:40:25.317Z,0.60
2023-03-04T06:41:27.198Z,0.60
2023-03-04T06:42:29.078Z,0.60
2023-03-04T06:43:30.962Z,0.60
2023-03-04T06:55:12.020Z,0.80
2023-03-04T07:01:16.363Z,0.70
2023-03-04T07:02:18.321Z,0.60
2023-03-04T07:03:47.912Z,0.50
2023-03-04T07:04:50.874Z,0.60
2023-03-04T07:06:22.334Z,0.50
2023-03-04T07:10:17.664Z,0.40
2023-03-04T07:18:32.013Z,0.50
2023-03-04T07:19:33.950Z,0.50
2023-03-04T07:20:35.870Z,0.60
2023-03-04T07:21:38.057Z,0.60
2023-03-04T07:22:39.933Z,0.60
2023-03-04T07:23:42.142Z,0.70
2023-03-04T07:24:44.021Z,0.70
2023-03-04T07:25:46.596Z,0.80
2023-03-04T07:26:48.642Z,0.80
2023-03-04T07:27:50.618Z,0.80
2023-03-04T07:28:54.579Z,0.90
2023-03-04T07:29:56.474Z,0.90
2023-03-04T07:31:07.597Z,0.80
2023-03-04T07:32:10.459Z,0.80
2023-03-04T07:33:13.995Z,0.70
2023-03-04T07:34:16.155Z,0.60
2023-03-04T07:35:18.186Z,0.70
2023-03-04T07:36:20.211Z,0.80
2023-03-04T07:37:22.157Z,0.70
2023-03-04T07:38:24.240Z,0.70
2023-03-04T07:39:26.172Z,0.70
2023-03-04T07:40:28.186Z,0.70
2023-03-04T07:41:30.266Z,0.60
2023-03-04T07:42:32.129Z,0.60
2023-03-04T07:43:34.125Z,0.60
2023-03-04T07:44:36.215Z,0.60
2023-03-04T07:45:38.275Z,0.60
2023-03-04T07:46:40.480Z,0.50
2023-03-04T07:47:42.364Z,0.50
2023-03-04T07:48:44.585Z,0.50
2023-03-04T07:49:46.475Z,0.50
2023-03-04T07:50:48.393Z,0.60
2023-03-04T07:51:50.324Z,0.60
2023-03-04T07:52:52.266Z,0.70
2023-03-04T07:53:58.270Z,0.80
2023-03-04T07:55:00.280Z,0.80
2023-03-04T07:56:02.838Z,0.90
2023-03-04T07:57:05.304Z,1.00
2023-03-04T07:58:07.481Z,1.00
2023-03-04T07:59:09.405Z,1.00
2023-03-04T08:00:14.219Z,1.00
2023-03-04T08:01:23.947Z,1.00
2023-03-04T08:02:25.851Z,1.00
2023-03-04T08:03:29.665Z,1.00
2023-03-04T08:04:31.986Z,1.00
2023-03-04T08:05:34.012Z,1.10
2023-03-04T08:06:36.554Z,1.10
2023-03-04T08:07:38.533Z,1.10
2023-03-04T08:08:40.985Z,1.20
2023-03-04T08:09:43.287Z,1.10
2023-03-04T08:10:45.760Z,1.10
2023-03-04T08:11:47.770Z,1.10
2023-03-04T08:12:49.663Z,1.00
2023-03-04T08:13:54.288Z,0.90
2023-03-04T08:14:56.272Z,0.80
2023-03-04T08:15:59.511Z,0.90
2023-03-04T08:17:01.606Z,0.80
2023-03-04T08:18:03.628Z,0.80
2023-03-04T08:19:06.501Z,0.80
2023-03-04T08:20:08.978Z,0.80
2023-03-04T08:21:12.527Z,0.80
2023-03-04T08:22:14.672Z,0.80
2023-03-04T08:23:16.750Z,0.90
2023-03-04T08:24:18.790Z,0.80
2023-03-04T08:25:20.665Z,0.90
2023-03-04T08:26:31.124Z,0.90
2023-03-04T08:27:33.104Z,0.90
2023-03-04T08:28:35.819Z,0.90
2023-03-04T08:29:56.849Z,1.00
2023-03-04T08:31:20.198Z,1.00
2023-03-04T08:32:23.797Z,1.00
2023-03-04T08:33:25.857Z,1.00
2023-03-04T08:34:29.205Z,1.00
2023-03-04T08:35:31.950Z,1.00
2023-03-04T08:36:34.423Z,1.00
2023-03-04T08:37:36.483Z,1.00
2023-03-04T08:38:38.772Z,1.00
2023-03-04T08:39:40.782Z,0.90
2023-03-04T08:40:42.773Z,0.90
2023-03-04T08:41:45.591Z,1.00
2023-03-04T08:42:47.842Z,1.00
2023-03-04T08:43:49.710Z,1.00
2023-03-04T08:44:51.597Z,1.00
2023-03-04T08:45:54.918Z,1.00
2023-03-04T08:46:56.873Z,0.90
2023-03-04T08:47:58.924Z,0.90
2023-03-04T08:49:00.813Z,0.90
2023-03-04T08:50:05.139Z,0.80
2023-03-04T08:51:12.637Z,0.70
2023-03-04T08:52:14.560Z,0.70
2023-03-04T08:53:18.398Z,0.70
2023-03-04T08:54:20.482Z,0.70
2023-03-04T08:55:22.398Z,0.60
2023-03-04T08:56:24.901Z,0.60
2023-03-04T08:57:27.154Z,0.50
2023-03-04T08:58:29.165Z,0.40
2023-03-04T08:59:31.570Z,0.30
2023-03-04T09:00:38.208Z,0.20
2023-03-04T09:01:42.290Z,0.10
2023-03-04T09:02:44.341Z,0.00
2023-03-04T09:03:46.412Z,0.00
2023-03-04T09:04:48.375Z,0.00
2023-03-04T09:05:51.202Z,0.00
2023-03-04T09:06:54.111Z,0.00
2023-03-04T09:07:56.047Z,0.00
2023-03-04T09:08:57.978Z,0.00
2023-03-04T09:09:59.914Z,0.00
2023-03-04T09:11:02.092Z,0.00
2023-03-04T09:12:04.165Z,-0.10
2023-03-04T09:13:06.518Z,-0.10
2023-03-04T09:14:08.460Z,-0.10
2023-03-04T09:15:12.053Z,-0.20
2023-03-04T09:16:15.437Z,-0.20
2023-03-04T09:17:17.326Z,-0.20
2023-03-04T09:18:20.632Z,-0.20
2023-03-04T09:19:23.022Z,-0.20
2023-03-04T09:20:25.046Z,-0.20
2023-03-04T09:21:27.126Z,-0.10
2023-03-04T09:22:29.213Z,-0.10
2023-03-04T09:23:31.087Z,-0.10
2023-03-04T09:24:32.980Z,-0.10
2023-03-04T09:25:34.939Z,-0.10
2023-03-04T09:26:36.833Z,-0.10
2023-03-04T09:27:38.729Z,0.00
2023-03-04T09:28:40.592Z,0.00
2023-03-04T09:29:44.522Z,0.00
2023-03-04T09:30:46.805Z,0.00
2023-03-04T09:31:48.831Z,0.00
2023-03-04T09:32:50.920Z,0.10
2023-03-04T09:33:56.050Z,0.10
2023-03-04T09:35:00.942Z,0.10
2023-03-04T09:36:03.094Z,0.10
2023-03-04T09:37:05.054Z,0.20
2023-03-04T09:38:06.991Z,0.20
2023-03-04T09:39:08.954Z,0.30
2023-03-04T09:40:19.243Z,0.30
2023-03-04T09:41:30.265Z,0.30
2023-03-04T09:42:46.384Z,0.30
2023-03-04T09:43:50.680Z,0.30
2023-03-04T09:44:54.750Z,0.30
2023-03-04T09:46:04.136Z,0.30
2023-03-04T09:47:15.722Z,0.30
2023-03-04T09:48:22.145Z,0.30
2023-03-04T09:49:25.056Z,0.30
2023-03-04T09:50:31.885Z,0.30
2023-03-04T09:51:51.415Z,0.30
2023-03-04T09:53:07.674Z,0.30
2023-03-04T09:54:18.512Z,0.20
2023-03-04T09:55:25.658Z,0.20
2023-03-04T09:56:28.427Z,0.20
2023-03-04T09:57:37.226Z,0.20
2023-03-04T09:58:49.109Z,0.20
2023-03-04T10:00:20.067Z,0.20
2023-03-04T10:01:44.878Z,0.10
2023-03-04T10:03:10.042Z,0.10
2023-03-04T10:04:12.389Z,0.10
2023-03-04T10:05:21.715Z,0.10
2023-03-04T10:06:24.338Z,0.10
2023-03-04T10:07:38.055Z,0.10
2023-03-04T10:09:00.440Z,0.10
2023-03-04T10:10:19.227Z,0.10
2023-03-04T10:11:27.826Z,0.10
2023-03-04T10:12:33.055Z,0.10
2023-03-04T10:13:47.163Z,0.00
2023-03-04T10:14:51.256Z,0.00
2023-03-04T10:15:54.434Z,0.00
2023-03-04T10:17:16.893Z,-0.10
2023-03-04T10:18:27.808Z,-0.10
2023-03-04T10:19:45.824Z,-0.10
2023-03-04T10:20:59.395Z,-0.20
2023-03-04T10:22:11.065Z,-0.20
2023-03-04T10:23:19.570Z,-0.20
2023-03-04T10:24:27.536Z,-0.30
2023-03-04T10:25:31.934Z,-0.30
2023-03-04T10:26:34.240Z,-0.30
2023-03-04T10:27:36.278Z,-0.30
2023-03-04T10:28:38.710Z,-0.30
2023-03-04T10:29:40.881Z,-0.40
2023-03-04T10:30:49.025Z,-0.30
2023-03-04T10:31:51.745Z,-0.30
2023-03-04T10:32:53.852Z,-0.30
2023-03-04T10:33:58.242Z,-0.30
2023-03-04T10:35:00.112Z,-0.30
2023-03-04T10:36:04.288Z,-0.30
2023-03-04T10:37:08.783Z,-0.30
2023-03-04T10:38:13.278Z,-0.30
2023-03-04T10:39:33.640Z,-0.30
2023-03-04T10:40:42.029Z,-0.20
2023-03-04T10:41:53.438Z,-0.30
2023-03-04T10:42:56.175Z,-0.30
2023-03-04T10:44:04.235Z,-0.30
2023-03-04T10:45:24.103Z,-0.30
2023-03-04T10:46:26.767Z,-0.30
2023-03-04T10:47:31.392Z,-0.30
2023-03-04T10:48:33.309Z,-0.30
2023-03-04T10:49:50.651Z,-0.30
2023-03-04T10:50:52.668Z,-0.40
2023-03-04T10:52:31.479Z,-0.50
2023-03-04T10:53:42.308Z,-0.50
2023-03-04T10:54:53.487Z,-0.50
2023-03-04T10:55:55.452Z,-0.50
2023-03-04T10:57:04.824Z,-0.60
2023-03-04T10:58:07.550Z,-0.60
2023-03-04T10:59:28.131Z,-0.60
2023-03-04T11:00:35.131Z,-0.60
2023-03-04T11:01:37.504Z,-0.60
2023-03-04T11:02:39.256Z,-0.60
2023-03-04T11:03:46.167Z,-0.60
2023-03-04T11:05:11.514Z,-0.60
2023-03-04T11:06:32.711Z,-0.60
2023-03-04T11:07:53.510Z,-0.60
2023-03-04T11:08:57.664Z,-0.60
2023-03-04T11:10:10.410Z,-0.60
2023-03-04T11:11:34.695Z,-0.60
2023-03-04T11:12:36.524Z,-0.60
2023-03-04T11:13:38.404Z,-0.60
2023-03-04T11:14:46.705Z,-0.70
2023-03-04T11:15:48.474Z,-0.70
2023-03-04T11:17:13.111Z,-0.70
2023-03-04T11:18:15.858Z,-0.70
2023-03-04T11:19:18.901Z,-0.70
2023-03-04T11:20:26.601Z,-0.70
2023-03-04T11:21:30.232Z,-0.70
2023-03-04T11:22:32.524Z,-0.70
2023-03-04T11:23:37.372Z,-0.70
2023-03-04T11:24:39.136Z,-0.70
2023-03-04T11:25:42.323Z,-0.70
2023-03-04T11:26:49.199Z,-0.80
2023-03-04T11:27:53.838Z,-0.80
2023-03-04T11:29:13.655Z,-0.80
2023-03-04T11:30:18.546Z,-0.80
2023-03-04T11:31:46.828Z,-0.80
2023-03-04T11:32:50.882Z,-0.80
2023-03-04T11:33:58.159Z,-0.80
2023-03-04T11:35:14.825Z,-0.80
2023-03-04T11:36:19.668Z,-0.80
2023-03-04T11:37:28.905Z,-0.80
2023-03-04T11:38:50.157Z,-0.80
2023-03-04T11:39:56.777Z,-0.80
2023-03-04T11:41:00.100Z,-0.80
2023-03-04T11:42:05.180Z,-0.80
2023-03-04T11:43:27.174Z,-0.80
2023-03-04T11:44:29.764Z,-0.80
2023-03-04T11:45:50.077Z,-0.80
2023-03-04T11:46:58.301Z,-0.80
2023-03-04T11:48:02.811Z,-0.80
2023-03-04T11:49:16.876Z,-0.80
2023-03-04T11:50:30.076Z,-0.80
2023-03-04T11:51:38.098Z,-0.80
2023-03-04T11:53:00.604Z,-0.80
2023-03-04T11:54:05.448Z,-0.80
2023-03-04T11:55:19.001Z,-0.80
2023-03-04T11:56:38.174Z,-0.80
2023-03-04T11:57:58.958Z,-0.70
2023-03-04T11:59:15.492Z,-0.70
2023-03-04T12:00:22.392Z,-0.70
2023-03-04T12:01:27.217Z,-0.70
2023-03-04T12:02:52.002Z,-0.70
2023-03-04T12:04:09.252Z,-0.70
2023-03-04T12:05:19.527Z,-0.70
2023-03-04T12:06:27.280Z,-0.70
2023-03-04T12:07:32.189Z,-0.70
2023-03-04T12:08:42.902Z,-0.70
2023-03-04T12:09:50.642Z,-0.70
2023-03-04T12:10:58.095Z,-0.70
2023-03-04T12:12:08.624Z,-0.70
2023-03-04T12:13:19.713Z,-0.60
2023-03-04T12:14:25.336Z,-0.70
2023-03-04T12:15:31.845Z,-0.60
2023-03-04T12:16:41.793Z,-0.70
2023-03-04T12:18:02.704Z,-0.60
2023-03-04T12:19:14.566Z,-0.60
2023-03-04T12:20:35.493Z,-0.60
2023-03-04T12:21:56.309Z,-0.60
2023-03-04T12:22:58.198Z,-0.50
2023-03-04T12:24:18.174Z,-0.50
2023-03-04T12:25:37.735Z,-0.50
2023-03-04T12:26:46.063Z,-0.40
2023-03-04T12:28:01.164Z,-0.40
2023-03-04T12:29:19.100Z,-0.40
2023-03-04T12:30:39.613Z,-0.40
2023-03-04T12:31:42.852Z,-0.40
2023-03-04T12:33:03.536Z,-0.30
2023-03-04T12:34:27.964Z,-0.30
2023-03-04T12:35:32.940Z,-0.30
2023-03-04T12:36:53.031Z,-0.20
2023-03-04T12:38:06.972Z,-0.20
2023-03-04T12:39:27.238Z,-0.20
2023-03-04T12:40:32.784Z,-0.10
2023-03-04T12:41:39.481Z,-0.10
2023-03-04T12:43:04.030Z,-0.10
2023-03-04T12:44:21.694Z,0.00
2023-03-04T12:45:32.670Z,0.10
2023-03-04T12:46:45.112Z,0.10
2023-03-04T12:47:47.067Z,0.10
2023-03-04T12:48:56.192Z,0.20
2023-03-04T12:49:58.059Z,0.20
2023-03-04T12:51:18.492Z,0.30
2023-03-04T12:52:41.671Z,0.30
2023-03-04T12:53:49.458Z,0.30
2023-03-04T12:54:59.923Z,0.30
2023-03-04T12:56:02.868Z,0.30
2023-03-04T12:57:09.940Z,0.40
2023-03-04T12:58:30.835Z,0.40
2023-03-04T12:59:36.490Z,0.40
2023-03-04T13:01:17.308Z,0.40
2023-03-04T13:02:37.066Z,0.40
2023-03-04T13:04:07.879Z,0.50
2023-03-04T13:05:28.139Z,0.50
2023-03-04T13:06:48.534Z,0.40
2023-03-04T13:07:57.604Z,0.50
2023-03-04T13:09:12.089Z,0.50
2023-03-04T13:10:18.179Z,0.50
2023-03-04T13:11:25.916Z,0.50
2023-03-04T13:12:27.987Z,0.50
2023-03-04T13:13:42.550Z,0.50
2023-03-04T13:15:22.860Z,0.50
2023-03-04T13:16:32.778Z,0.50
2023-03-04T13:17:45.765Z,0.60
2023-03-04T13:18:49.462Z,0.50
2023-03-04T13:19:58.664Z,0.60
2023-03-04T13:21:13.522Z,0.60
2023-03-04T13:22:28.930Z,0.60
2023-03-04T13:23:32.341Z,0.60
2023-03-04T13:24:51.008Z,0.60
2023-03-04T13:25:56.012Z,0.60
2023-03-04T13:26:58.204Z,0.60
2023-03-04T13:28:03.225Z,0.70
2023-03-04T13:29:32.172Z,0.60
2023-03-04T13:30:40.216Z,0.70
2023-03-04T13:32:31.409Z,0.60
2023-03-04T13:33:36.379Z,0.70
2023-03-04T13:34:56.174Z,0.60
2023-03-04T13:36:04.006Z,0.70
2023-03-04T13:37:25.921Z,0.70
2023-03-04T13:38:28.043Z,0.70
2023-03-04T13:39:30.802Z,0.70
2023-03-04T13:40:34.837Z,0.70
2023-03-04T13:41:49.972Z,0.70
2023-03-04T13:42:51.821Z,0.70
2023-03-04T13:43:56.846Z,0.70
2023-03-04T13:44:59.824Z,0.70
2023-03-04T13:46:20.311Z,0.70
2023-03-04T13:47:26.677Z,0.70
2023-03-04T13:48:34.411Z,0.70
2023-03-04T13:49:36.249Z,0.70
2023-03-04T13:50:40.280Z,0.70
2023-03-04T13:51:46.657Z,0.70
2023-03-04T13:52:48.573Z,0.70
2023-03-04T13:53:57.368Z,0.70
2023-03-04T13:55:17.931Z,0.70
2023-03-04T13:56:22.254Z,0.70
2023-03-04T13:57:24.135Z,0.70
2023-03-04T13:58:27.241Z,0.70
2023-03-04T13:59:33.862Z,0.70
2023-03-04T14:00:36.437Z,0.70
2023-03-04T14:01:40.945Z,0.70
2023-03-04T14:02:45.166Z,0.70
2023-03-04T14:03:47.063Z,0.70
2023-03-04T14:04:54.738Z,0.70
2023-03-04T14:06:09.807Z,0.70
2023-03-04T14:07:19.786Z,0.70
2023-03-04T14:08:25.531Z,0.70
2023-03-04T14:09:33.411Z,0.70
2023-03-04T14:10:35.435Z,0.70
2023-03-04T14:11:42.414Z,0.70
2023-03-04T14:12:46.592Z,0.70
2023-03-04T14:13:51.437Z,0.70
2023-03-04T14:14:54.914Z,0.70
2023-03-04T14:15:57.699Z,0.70
2023-03-04T14:17:01.100Z,0.70
2023-03-04T14:18:04.854Z,0.70
2023-03-04T14:19:08.092Z,0.70
2023-03-04T14:20:28.849Z,0.70
2023-03-04T14:21:30.936Z,0.70
2023-03-04T14:22:34.096Z,0.70
2023-03-04T14:23:36.456Z,0.60
2023-03-04T14:24:38.625Z,0.60
2023-03-04T14:25:40.601Z,0.70
2023-03-04T14:26:42.418Z,0.60
2023-03-04T14:27:44.368Z,0.60
2023-03-04T14:28:51.625Z,0.60
2023-03-04T14:29:57.516Z,0.60
2023-03-04T14:30:59.361Z,0.60
2023-03-04T14:32:02.840Z,0.60
2023-03-04T14:33:07.470Z,0.60
2023-03-04T14:34:14.749Z,0.60
2023-03-04T14:35:23.477Z,0.60
2023-03-04T14:36:26.081Z,0.60
2023-03-04T14:37:34.286Z,0.60
2023-03-04T14:38:38.284Z,0.60
2023-03-04T14:39:40.141Z,0.60
2023-03-04T14:40:44.729Z,0.60
2023-03-04T14:41:47.610Z,0.60
2023-03-04T14:42:50.485Z,0.60
2023-03-04T14:44:21.370Z,0.60
2023-03-04T14:45:23.858Z,0.60
2023-03-04T14:46:26.938Z,0.60
2023-03-04T14:47:31.602Z,0.60
2023-03-04T14:48:33.875Z,0.60
2023-03-04T14:49:39.501Z,0.60
2023-03-04T14:50:47.983Z,0.60
2023-03-04T14:51:50.545Z,0.60
2023-03-04T14:53:07.605Z,0.60
2023-03-04T14:54:29.575Z,0.60
2023-03-04T14:55:31.394Z,0.60
2023-03-04T14:56:36.886Z,0.60
2023-03-04T14:57:39.001Z,0.50
2023-03-04T14:58:52.875Z,0.50
2023-03-04T14:59:56.060Z,0.60
2023-03-04T15:01:05.609Z,0.50
2023-03-04T15:02:21.228Z,0.50
2023-03-04T15:03:24.647Z,0.50
2023-03-04T15:04:26.433Z,0.50
2023-03-04T15:05:28.300Z,0.60
2023-03-04T15:06:32.976Z,0.60
2023-03-04T15:07:36.568Z,0.60
2023-03-04T15:08:38.844Z,0.60
2023-03-04T15:09:41.070Z,0.60
2023-03-04T15:10:42.969Z,0.60
2023-03-04T15:11:49.332Z,0.60
2023-03-04T15:12:52.563Z,0.60
2023-03-04T15:13:55.666Z,0.60
2023-03-04T15:14:59.329Z,0.60
2023-03-04T15:16:01.849Z,0.60
2023-03-04T15:17:03.754Z,0.60
2023-03-04T15:18:14.895Z,0.60
2023-03-04T15:19:29.270Z,0.50
2023-03-04T15:20:32.135Z,0.50
2023-03-04T15:21:36.852Z,0.50
2023-03-04T15:22:44.766Z,0.50
2023-03-04T15:23:46.564Z,0.50
2023-03-04T15:24:49.802Z,0.50
2023-03-04T15:25:53.560Z,0.50
2023-03-04T15:26:55.515Z,0.50
2023-03-04T15:27:57.552Z,0.50
2023-03-04T15:28:59.547Z,0.50
2023-03-04T15:30:02.335Z,0.50
2023-03-04T15:31:04.588Z,0.50
2023-03-04T15:32:06.544Z,0.50
2023-03-04T15:33:10.705Z,0.50
2023-03-04T15:34:16.456Z,0.50
2023-03-04T15:35:18.916Z,0.50
2023-03-04T15:36:22.037Z,0.50
2023-03-04T15:37:29.957Z,0.50
2023-03-04T15:38:31.885Z,0.50
2023-03-04T15:39:33.738Z,0.50
2023-03-04T15:40:39.063Z,0.50
2023-03-04T15:41:41.075Z,0.50
2023-03-04T15:42:42.933Z,0.50
2023-03-04T15:43:44.781Z,0.50
2023-03-04T15:44:46.721Z,0.50
2023-03-04T15:45:49.433Z,0.40
2023-03-04T15:46:51.234Z,0.40
2023-03-04T15:47:53.011Z,0.40
2023-03-04T15:48:54.828Z,0.40
2023-03-04T15:49:56.848Z,0.40
2023-03-04T15:51:00.868Z,0.40
2023-03-04T15:52:06.309Z,0.40
2023-03-04T15:53:10.628Z,0.40
2023-03-04T15:54:14.046Z,0.40
2023-03-04T15:55:20.795Z,0.40
2023-03-04T15:56:29.897Z,0.40
2023-03-04T15:57:31.860Z,0.40
2023-03-04T15:58:35.180Z,0.40
2023-03-04T15:59:37.979Z,0.40